createdAt,value
2023-05-11T00:02:36.431Z,1.85
2023-05-11T00:07:38.554Z,2.35
2023-05-11T00:12:40.787Z,2.53
2023-05-11T00:17:42.940Z,2.28
2023-05-11T00:22:45.088Z,2.35
2023-05-11T00:27:47.166Z,1.70
2023-05-11T00:32:51.599Z,2.38
2023-05-11T00:37:53.792Z,1.92
2023-05-11T00:42:55.870Z,1.67
2023-05-11T00:47:58.464Z,2.60
2023-05-11T00:53:00.732Z,2.22
2023-05-11T00:58:05.712Z,1.73
2023-05-11T01:03:07.943Z,2.03
2023-05-11T01:08:18.250Z,1.52
2023-05-11T01:13:33.630Z,1.77
2023-05-11T01:18:51.883Z,2.15
2023-05-11T01:24:24.228Z,1.77
2023-05-11T01:29:44.386Z,1.75
2023-05-11T01:34:52.216Z,2.10
2023-05-11T01:39:58.901Z,2.80
2023-05-11T01:45:01.937Z,2.03
2023-05-11T01:50:06.235Z,2.00
2023-05-11T01:55:10.530Z,2.60
2023-05-11T02:00:16.051Z,2.22
2023-05-11T02:05:23.718Z,2.47
2023-05-11T02:10:27.236Z,2.20
2023-05-11T02:15:31.068Z,2.20
2023-05-11T02:20:34.843Z,1.88
2023-05-11T02:25:40.938Z,2.03
2023-05-11T02:30:48.422Z,2.30
2023-05-11T02:35:54.257Z,1.92
2023-05-11T02:41:01.456Z,1.80
2023-05-11T02:46:09.152Z,1.90
2023-05-11T02:51:14.219Z,2.35
2023-05-11T02:56:22.193Z,1.95
2023-05-11T03:01:30.375Z,1.98
2023-05-11T03:06:33.693Z,2.40
2023-05-11T03:11:38.031Z,2.00
2023-05-11T03:16:41.924Z,2.30
2023-05-11T03:21:44.956Z,2.42
2023-05-11T03:26:48.472Z,2.15
2023-05-11T03:31:51.489Z,1.98
2023-05-11T03:36:58.170Z,1.88
2023-05-11T03:42:01.827Z,1.70
2023-05-11T03:47:04.649Z,2.03
2023-05-11T03:52:08.265Z,1.90
2023-05-11T03:57:11.334Z,1.67
2023-05-11T04:02:14.249Z,2.15
2023-05-11T04:07:16.578Z,1.73
2023-05-11T04:12:19.221Z,1.90
2023-05-11T04:17:21.254Z,2.00
2023-05-11T04:22:23.442Z,1.48
2023-05-11T04:27:25.569Z,1.67
2023-05-11T04:32:28.448Z,1.92
2023-05-11T04:37:30.700Z,1.60
2023-05-11T04:42:33.097Z,1.60
2023-05-11T04:47:38.083Z,1.53
2023-05-11T04:52:42.352Z,1.20
2023-05-11T04:57:44.542Z,1.48
2023-05-11T05:02:46.733Z,1.45
2023-05-11T05:07:48.813Z,1.23
2023-05-11T05:12:50.869Z,1.13
2023-05-11T05:17:53.122Z,1.15
2023-05-11T05:22:56.277Z,1.17
2023-05-11T05:27:58.753Z,1.20
2023-05-11T05:33:01.852Z,1.40
2023-05-11T05:38:04.331Z,1.73
2023-05-11T05:43:07.051Z,1.40
2023-05-11T05:48:10.194Z,1.40
2023-05-11T05:53:13.823Z,1.63
2023-05-11T05:58:16.189Z,1.25
2023-05-11T06:03:18.817Z,1.20
2023-05-11T06:08:21.033Z,1.35
2023-05-11T06:13:23.171Z,1.73
2023-05-11T06:18:26.355Z,2.30
2023-05-11T06:23:28.638Z,1.80
2023-05-11T06:28:30.850Z,1.95
2023-05-11T06:33:36.605Z,1.30
2023-05-11T06:38:43.079Z,1.23
2023-05-11T06:43:45.864Z,1.48
2023-05-11T06:49:02.972Z,1.63
2023-05-11T06:54:05.858Z,1.20
2023-05-11T06:59:07.958Z,1.70
2023-05-11T07:04:10.071Z,1.40
2023-05-11T07:09:12.245Z,1.10
2023-05-11T07:14:14.281Z,1.75
2023-05-11T07:19:16.446Z,1.80
2023-05-11T07:24:18.558Z,2.00
2023-05-11T07:29:21.063Z,1.85
2023-05-11T07:34:23.284Z,1.58
2023-05-11T07:39:25.452Z,1.30
2023-05-11T07:44:27.624Z,1.30
2023-05-11T07:49:39.875Z,1.20
2023-05-11T07:54:45.392Z,1.48
2023-05-11T07:59:47.479Z,1.60
2023-05-11T08:04:49.620Z,1.55
2023-05-11T08:09:51.700Z,2.00
2023-05-11T08:14:53.785Z,1.30
2023-05-11T08:19:56.571Z,1.55
2023-05-11T08:24:58.883Z,1.42
2023-05-11T08:30:03.968Z,1.70
2023-05-11T08:35:07.092Z,1.75
2023-05-11T08:40:13.238Z,1.50
2023-05-11T08:45:18.048Z,1.40
2023-05-11T08:50:21.697Z,1.40
2023-05-11T08:55:26.648Z,1.70
2023-05-11T09:00:29.575Z,1.30
2023-05-11T09:05:32.568Z,1.70
2023-05-11T09:10:36.942Z,1.40
2023-05-11T09:15:39.193Z,1.60
2023-05-11T09:20:44.071Z,1.40
2023-05-11T09:25:48.921Z,1.60
2023-05-11T09:30:51.114Z,1.42
2023-05-11T09:35:53.894Z,1.80
2023-05-11T09:40:56.878Z,1.63
2023-05-11T09:46:05.053Z,1.83
2023-05-11T09:51:08.086Z,2.50
2023-05-11T09:56:11.075Z,1.70
2023-05-11T10:01:14.675Z,2.20
2023-05-11T10:06:19.938Z,1.77
2023-05-11T10:11:24.729Z,1.80
2023-05-11T10:21:30.725Z,1.88
2023-05-11T10:26:33.708Z,1.92
2023-05-11T10:31:37.701Z,1.70
2023-05-11T10:36:40.068Z,2.22
2023-05-11T10:42:23.028Z,1.77
2023-05-11T10:48:02.904Z,1.75
2023-05-11T10:53:26.675Z,1.10
2023-05-11T10:58:48.854Z,1.48
2023-05-11T11:04:05.196Z,1.70
2023-05-11T11:09:15.905Z,1.50
2023-05-11T11:14:19.259Z,1.88
2023-05-11T11:19:30.398Z,1.83
2023-05-11T11:24:38.447Z,1.77
2023-05-11T11:29:40.785Z,1.40
2023-05-11T11:34:44.031Z,1.85
2023-05-11T11:39:50.017Z,1.35
2023-05-11T11:44:52.240Z,1.58
2023-05-11T11:49:55.355Z,1.67
2023-05-11T11:55:02.323Z,1.45
2023-05-11T12:00:11.690Z,1.77
2023-05-11T12:05:19.196Z,1.35
2023-05-11T12:10:22.509Z,1.10
2023-05-11T12:15:24.621Z,1.15
2023-05-11T12:20:26.645Z,1.00
2023-05-11T12:25:28.829Z,1.10
2023-05-11T12:30:33.508Z,1.02
2023-05-11T12:35:35.937Z,1.10
2023-05-11T12:40:38.893Z,1.00
2023-05-11T12:45:41.138Z,1.25
2023-05-11T12:50:45.170Z,1.10
2023-05-11T12:55:58.703Z,1.17
2023-05-11T13:01:00.907Z,1.30
2023-05-11T13:06:07.379Z,1.30
2023-05-11T13:11:22.819Z,1.20
2023-05-11T13:16:32.941Z,1.38
2023-05-11T13:21:35.096Z,1.10
2023-05-11T13:26:37.184Z,1.35
2023-05-11T13:31:46.939Z,1.50
2023-05-11T13:36:49.716Z,1.00
2023-05-11T13:41:53.088Z,1.15
2023-05-11T13:46:56.859Z,1.15
2023-05-11T13:52:00.072Z,1.15
2023-05-11T13:57:02.808Z,1.30
2023-05-11T14:02:05.069Z,1.38
2023-05-11T14:07:07.434Z,1.10
2023-05-11T14:12:10.044Z,1.20
2023-05-11T14:17:13.612Z,1.13
2023-05-11T14:22:15.814Z,1.35
2023-05-11T14:27:17.908Z,1.30
2023-05-11T14:32:20.051Z,1.48
2023-05-11T14:37:22.120Z,1.20
2023-05-11T14:42:24.169Z,1.13
2023-05-11T14:47:26.415Z,1.38
2023-05-11T14:52:28.528Z,1.40
2023-05-11T14:57:30.894Z,1.13
2023-05-11T15:02:33.017Z,1.10
2023-05-11T15:07:35.276Z,1.35
2023-05-11T15:12:37.368Z,1.35
2023-05-11T15:17:39.460Z,1.30
2023-05-11T15:22:41.600Z,1.60
2023-05-11T15:27:43.686Z,1.70
2023-05-11T15:32:45.945Z,1.60
2023-05-11T15:37:48.352Z,1.30
2023-05-11T15:42:50.418Z,1.20
2023-05-11T15:47:52.862Z,1.25
2023-05-11T15:52:56.525Z,1.90
2023-05-11T15:57:58.609Z,1.50
2023-05-11T16:03:01.574Z,1.10
2023-05-11T16:08:04.125Z,1.48
2023-05-11T16:13:06.446Z,1.20
2023-05-11T16:18:08.579Z,1.10
2023-05-11T16:23:10.856Z,1.20
2023-05-11T16:28:13.052Z,0.93
2023-05-11T16:33:15.336Z,1.30
2023-05-11T16:38:19.049Z,1.25
2023-05-11T16:43:21.216Z,1.52
2023-05-11T16:48:23.305Z,1.20
2023-05-11T16:53:27.339Z,1.40
2023-05-11T16:58:30.977Z,1.60
2023-05-11T17:03:34.607Z,1.98
2023-05-11T17:08:36.843Z,1.48
2023-05-11T17:13:39.064Z,1.55
2023-05-11T17:18:41.260Z,1.75
2023-05-11T17:23:45.066Z,1.60
2023-05-11T17:28:47.361Z,1.60
2023-05-11T17:33:49.458Z,1.38
2023-05-11T17:38:52.083Z,1.58
2023-05-11T17:43:54.224Z,1.65
2023-05-11T17:48:57.104Z,1.90
2023-05-11T17:53:59.338Z,2.10
2023-05-11T17:59:01.437Z,2.30
2023-05-11T18:04:04.651Z,2.35
2023-05-11T18:09:06.991Z,1.85
2023-05-11T18:14:10.785Z,2.78
2023-05-11T18:19:12.853Z,3.30
2023-05-11T18:24:15.935Z,2.95
2023-05-11T18:29:20.184Z,2.50
2023-05-11T18:34:22.646Z,3.00
2023-05-11T18:39:24.699Z,1.95
2023-05-11T18:44:27.569Z,2.20
2023-05-11T18:49:30.108Z,2.00
2023-05-11T18:54:32.325Z,2.53
2023-05-11T18:59:34.472Z,1.80
2023-05-11T19:04:36.567Z,2.17
2023-05-11T19:09:38.893Z,2.08
2023-05-11T19:14:41.185Z,1.90
2023-05-11T19:19:43.266Z,1.67
2023-05-11T19:24:45.292Z,1.85
2023-05-11T19:29:50.672Z,1.80
2023-05-11T19:34:52.760Z,1.67
2023-05-11T19:40:00.700Z,1.90
2023-05-11T19:45:15.025Z,1.67
2023-05-11T19:50:20.405Z,2.13
2023-05-11T19:55:24.468Z,1.90
2023-05-11T20:00:27.034Z,2.08
2023-05-11T20:05:29.129Z,1.80
2023-05-11T20:10:31.301Z,2.08
2023-05-11T20:15:34.195Z,2.45
2023-05-11T20:20:36.524Z,1.92
2023-05-11T20:25:43.578Z,2.08
2023-05-11T20:30:45.697Z,1.95
2023-05-11T20:35:47.785Z,1.58
2023-05-11T20:40:50.118Z,1.77
2023-05-11T20:45:52.619Z,2.20
2023-05-11T20:50:55.519Z,1.60
2023-05-11T20:55:57.629Z,1.50
2023-05-11T21:00:59.847Z,1.48
2023-05-11T21:06:01.944Z,1.38
2023-05-11T21:11:04.173Z,1.38
2023-05-11T21:16:06.807Z,1.17
2023-05-11T21:21:09.500Z,1.20
2023-05-11T21:26:11.705Z,1.23
2023-05-11T21:31:13.846Z,1.85
2023-05-11T21:36:15.984Z,1.17
2023-05-11T21:41:18.530Z,1.25
2023-05-11T21:46:20.616Z,1.33
2023-05-11T21:51:22.934Z,1.25
2023-05-11T21:56:25.125Z,1.17
2023-05-11T22:01:27.229Z,1.42
2023-05-11T22:06:29.465Z,1.30
2023-05-11T22:11:31.984Z,1.38
2023-05-11T22:16:34.090Z,1.15
2023-05-11T22:21:36.482Z,1.45
2023-05-11T22:26:38.564Z,1.10
2023-05-11T22:31:40.749Z,1.27
2023-05-11T22:36:42.874Z,1.67
2023-05-11T22:41:45.041Z,1.45
2023-05-11T22:46:47.148Z,1.40
2023-05-11T22:51:49.515Z,1.05
2023-05-11T22:56:52.311Z,1.65
2023-05-11T23:01:56.098Z,1.20
2023-05-11T23:06:59.667Z,1.35
2023-05-11T23:12:01.842Z,1.48
2023-05-11T23:17:03.976Z,1.48
2023-05-11T23:22:06.062Z,1.42
2023-05-11T23:27:08.201Z,1.27
2023-05-11T23:32:10.290Z,1.10
2023-05-11T23:37:12.331Z,1.27
2023-05-11T23:42:14.515Z,1.25
2023-05-11T23:47:16.775Z,1.70
2023-05-11T23:52:19.087Z,1.52
2023-05-11T23:57:21.280Z,1.70
